createdAt,value
2023-02-19T00:01:34.324Z,78.27
2023-02-19T00:04:08.362Z,77.87
2023-02-19T00:06:36.539Z,78.01
2023-02-19T00:09:04.804Z,77.90
2023-02-19T00:11:33.988Z,77.78
2023-02-19T00:14:02.629Z,77.88
2023-02-19T00:16:39.346Z,77.93
2023-02-19T00:19:12.156Z,78.12
2023-02-19T00:21:39.455Z,77.86
2023-02-19T00:24:08.563Z,78.48
2023-02-19T00:26:35.690Z,78.66
2023-02-19T00:29:03.044Z,79.10
2023-02-19T00:31:33.372Z,79.41
2023-02-19T00:34:03.195Z,79.90
2023-02-19T00:36:32.219Z,80.10
2023-02-19T00:38:59.229Z,79.75
2023-02-19T00:41:27.580Z,79.58
2023-02-19T00:44:01.144Z,79.59
2023-02-19T00:46:37.985Z,79.32
2023-02-19T00:49:08.054Z,79.55
2023-02-19T00:51:38.318Z,79.07
2023-02-19T00:54:06.570Z,79.10
2023-02-19T00:56:34.162Z,79.26
2023-02-19T00:59:01.485Z,78.75
2023-02-19T01:01:28.834Z,79.39
2023-02-19T01:03:55.982Z,79.79
2023-02-19T01:06:23.378Z,80.66
2023-02-19T01:08:51.061Z,80.52
2023-02-19T01:11:18.689Z,81.48
2023-02-19T01:13:45.881Z,81.71
2023-02-19T01:16:19.157Z,81.60
2023-02-19T01:18:47.823Z,81.76
2023-02-19T01:21:18.634Z,82.22
2023-02-19T01:23:46.676Z,82.22
2023-02-19T01:26:16.953Z,82.46
2023-02-19T01:28:45.172Z,82.82
2023-02-19T01:31:15.017Z,82.98
2023-02-19T01:33:50.281Z,83.11
2023-02-19T01:36:17.974Z,83.30
2023-02-19T01:38:45.478Z,83.24
2023-02-19T01:41:16.058Z,83.10
2023-02-19T01:43:59.551Z,82.42
2023-02-19T01:46:39.158Z,82.66
2023-02-19T01:49:21.287Z,82.33
2023-02-19T01:51:58.351Z,82.36
2023-02-19T01:54:29.940Z,81.91
2023-02-19T01:56:57.928Z,82.26
2023-02-19T01:59:25.981Z,82.34
2023-02-19T02:01:53.402Z,82.67
2023-02-19T02:04:20.924Z,82.60
2023-02-19T02:06:52.303Z,83.26
2023-02-19T02:09:39.844Z,84.17
2023-02-19T02:12:07.599Z,85.52
2023-02-19T02:14:37.546Z,86.71
2023-02-19T02:17:19.897Z,87.09
2023-02-19T02:20:14.801Z,87.80
2023-02-19T02:22:49.696Z,88.59
2023-02-19T02:25:23.381Z,88.95
2023-02-19T02:28:08.461Z,88.90
2023-02-19T02:31:07.869Z,88.91
2023-02-19T02:33:48.419Z,89.36
2023-02-19T02:36:24.660Z,90.80
2023-02-19T02:38:54.198Z,90.50
2023-02-19T02:41:22.513Z,90.23
2023-02-19T02:43:49.676Z,90.25
2023-02-19T02:46:26.489Z,89.75
2023-02-19T02:49:00.133Z,89.66
2023-02-19T02:51:36.394Z,89.90
2023-02-19T02:54:41.455Z,89.52
2023-02-19T02:57:14.738Z,89.57
2023-02-19T02:59:44.906Z,89.85
2023-02-19T03:02:21.020Z,90.15
2023-02-19T03:05:28.128Z,89.99
2023-02-19T03:07:55.352Z,89.92
2023-02-19T03:10:35.752Z,89.50
2023-02-19T03:13:24.794Z,89.47
2023-02-19T03:16:15.876Z,89.40
2023-02-19T03:19:06.427Z,89.11
2023-02-19T03:21:38.329Z,89.04
2023-02-19T03:24:29.306Z,90.23
2023-02-19T03:26:59.664Z,90.28
2023-02-19T03:29:31.787Z,91.16
2023-02-19T03:32:04.455Z,92.42
2023-02-19T03:34:37.325Z,92.80
2023-02-19T03:37:36.688Z,93.96
2023-02-19T03:40:04.556Z,94.53
2023-02-19T03:42:32.000Z,94.56
2023-02-19T03:45:20.056Z,94.88
2023-02-19T03:48:29.176Z,95.37
2023-02-19T03:51:02.316Z,95.83
2023-02-19T03:53:46.144Z,96.49
2023-02-19T03:56:22.893Z,96.52
2023-02-19T03:59:02.279Z,96.94
2023-02-19T04:01:44.806Z,96.94
2023-02-19T04:04:16.942Z,97.27
2023-02-19T04:06:52.661Z,97.56
2023-02-19T04:09:22.420Z,97.46
2023-02-19T04:11:52.864Z,97.25
2023-02-19T04:14:26.926Z,96.88
2023-02-19T04:17:02.000Z,96.86
2023-02-19T04:19:33.145Z,96.97
2023-02-19T04:22:01.674Z,96.97
2023-02-19T04:24:36.305Z,96.80
2023-02-19T04:27:05.254Z,96.61
2023-02-19T04:29:32.411Z,96.31
2023-02-19T04:31:59.523Z,96.76
2023-02-19T04:34:27.065Z,96.53
2023-02-19T04:36:54.116Z,97.00
2023-02-19T04:39:21.180Z,97.05
2023-02-19T04:41:48.541Z,97.14
2023-02-19T04:44:15.593Z,97.74
2023-02-19T04:46:43.210Z,98.61
2023-02-19T04:49:10.648Z,98.68
2023-02-19T04:51:38.969Z,98.85
2023-02-19T04:54:06.570Z,99.00
2023-02-19T04:56:33.987Z,98.95
2023-02-19T04:59:00.987Z,98.80
2023-02-19T05:01:28.157Z,98.76
2023-02-19T05:03:55.537Z,98.84
2023-02-19T05:06:22.582Z,99.13
2023-02-19T05:08:49.657Z,99.18
2023-02-19T05:11:17.246Z,99.47
2023-02-19T05:13:44.321Z,100.00
2023-02-19T05:16:13.919Z,100.00
2023-02-19T05:18:42.912Z,100.00
2023-02-19T05:21:11.443Z,100.00
2023-02-19T05:23:38.732Z,100.00
2023-02-19T05:26:18.005Z,100.00
2023-02-19T05:28:46.355Z,100.00
2023-02-19T05:31:14.528Z,100.00
2023-02-19T05:33:43.189Z,100.00
2023-02-19T05:36:13.000Z,100.00
2023-02-19T05:38:41.397Z,100.00
2023-02-19T05:41:17.522Z,100.00
2023-02-19T05:43:46.681Z,100.00
2023-02-19T05:46:17.072Z,100.00
2023-02-19T05:48:44.432Z,100.00
2023-02-19T05:51:14.740Z,100.00
2023-02-19T05:53:43.040Z,100.00
2023-02-19T05:56:34.021Z,100.00
2023-02-19T05:59:06.587Z,100.00
2023-02-19T06:01:35.508Z,100.00
2023-02-19T06:04:03.220Z,100.00
2023-02-19T06:06:30.466Z,100.00
2023-02-19T06:08:57.714Z,100.00
2023-02-19T06:11:25.452Z,100.00
2023-02-19T06:13:52.609Z,100.00
2023-02-19T06:16:19.853Z,100.00
2023-02-19T06:18:48.138Z,100.00
2023-02-19T06:21:17.083Z,100.00
2023-02-19T06:23:45.523Z,100.00
2023-02-19T06:26:22.718Z,100.00
2023-02-19T06:28:52.176Z,100.00
2023-02-19T06:31:22.217Z,100.00
2023-02-19T06:33:50.895Z,100.00
2023-02-19T06:36:20.126Z,100.00
2023-02-19T06:38:47.622Z,100.00
2023-02-19T06:41:15.121Z,100.00
2023-02-19T06:43:42.438Z,100.00
2023-02-19T06:46:12.147Z,100.00
2023-02-19T06:48:40.691Z,100.00
2023-02-19T06:51:09.974Z,100.00
2023-02-19T06:53:37.502Z,100.00
2023-02-19T06:56:07.459Z,100.00
2023-02-19T06:58:34.623Z,100.00
2023-02-19T07:01:02.167Z,100.00
2023-02-19T07:03:29.355Z,100.00
2023-02-19T07:05:59.694Z,99.76
2023-02-19T07:08:29.513Z,100.00
2023-02-19T07:10:58.492Z,98.89
2023-02-19T07:13:29.654Z,98.05
2023-02-19T07:16:02.588Z,98.35
2023-02-19T07:18:31.071Z,98.21
2023-02-19T07:21:10.271Z,97.61
2023-02-19T07:23:37.995Z,97.90
2023-02-19T07:26:09.460Z,97.97
2023-02-19T07:28:36.570Z,97.97
2023-02-19T07:31:05.104Z,97.14
2023-02-19T07:33:32.682Z,98.17
2023-02-19T07:35:59.741Z,98.62
2023-02-19T07:38:27.077Z,99.70
2023-02-19T07:40:56.903Z,100.00
2023-02-19T07:43:25.271Z,100.00
2023-02-19T07:45:53.002Z,100.00
2023-02-19T07:48:20.696Z,100.00
2023-02-19T07:50:59.378Z,100.00
2023-02-19T07:53:28.057Z,100.00
2023-02-19T07:55:59.794Z,100.00
2023-02-19T07:58:27.210Z,100.00
2023-02-19T08:00:54.373Z,100.00
2023-02-19T08:03:22.194Z,100.00
2023-02-19T08:05:51.494Z,100.00
2023-02-19T08:08:18.635Z,100.00
2023-02-19T08:11:04.829Z,100.00
2023-02-19T08:13:32.094Z,100.00
2023-02-19T08:16:10.953Z,100.00
2023-02-19T08:18:44.256Z,100.00
2023-02-19T08:21:12.354Z,100.00
2023-02-19T08:23:40.017Z,100.00
2023-02-19T08:26:07.471Z,100.00
2023-02-19T08:28:34.899Z,100.00
2023-02-19T08:31:05.739Z,100.00
2023-02-19T08:33:33.189Z,100.00
2023-02-19T08:36:09.039Z,100.00
2023-02-19T08:38:37.705Z,100.00
2023-02-19T08:41:07.417Z,100.00
2023-02-19T08:43:35.321Z,100.00
2023-02-19T08:46:02.804Z,100.00
2023-02-19T08:48:30.518Z,100.00
2023-02-19T08:51:05.376Z,100.00
2023-02-19T08:53:33.149Z,100.00
2023-02-19T08:56:08.892Z,100.00
2023-02-19T08:58:37.471Z,100.00
2023-02-19T09:01:16.394Z,100.00
2023-02-19T09:03:44.384Z,100.00
2023-02-19T09:06:16.392Z,100.00
2023-02-19T09:08:43.750Z,100.00
2023-02-19T09:11:10.982Z,100.00
2023-02-19T09:13:38.232Z,100.00
2023-02-19T09:16:06.368Z,100.00
2023-02-19T09:18:33.460Z,100.00
2023-02-19T09:21:02.529Z,100.00
2023-02-19T09:23:30.549Z,100.00
2023-02-19T09:26:00.059Z,100.00
2023-02-19T09:28:27.929Z,100.00
2023-02-19T09:30:55.791Z,100.00
2023-02-19T09:33:22.889Z,100.00
2023-02-19T09:35:49.894Z,100.00
2023-02-19T09:38:17.303Z,100.00
2023-02-19T09:40:44.507Z,100.00
2023-02-19T09:43:18.628Z,100.00
2023-02-19T09:45:46.792Z,100.00
2023-02-19T09:48:13.862Z,100.00
2023-02-19T09:50:47.752Z,100.00
2023-02-19T09:53:17.358Z,100.00
2023-02-19T09:55:45.260Z,100.00
2023-02-19T09:58:21.762Z,100.00
2023-02-19T10:00:50.365Z,100.00
2023-02-19T10:03:34.477Z,100.00
2023-02-19T10:06:08.214Z,100.00
2023-02-19T10:08:37.943Z,100.00
2023-02-19T10:11:06.335Z,100.00
2023-02-19T10:13:37.669Z,100.00
2023-02-19T10:16:19.402Z,100.00
2023-02-19T10:18:47.465Z,100.00
2023-02-19T10:21:19.807Z,100.00
2023-02-19T10:23:50.367Z,100.00
2023-02-19T10:26:18.241Z,100.00
2023-02-19T10:28:45.559Z,100.00
2023-02-19T10:31:24.625Z,100.00
2023-02-19T10:33:56.795Z,100.00
2023-02-19T10:36:48.597Z,100.00
2023-02-19T10:39:21.893Z,100.00
2023-02-19T10:41:50.950Z,99.42
2023-02-19T10:44:23.431Z,96.91
2023-02-19T10:46:55.332Z,98.18
2023-02-19T10:49:30.191Z,96.07
2023-02-19T10:52:02.449Z,95.59
2023-02-19T10:54:32.850Z,90.85
2023-02-19T10:57:15.998Z,91.38
2023-02-19T11:00:19.102Z,89.91
2023-02-19T11:02:46.433Z,89.58
2023-02-19T11:05:19.853Z,86.85
2023-02-19T11:07:57.918Z,85.57
2023-02-19T11:10:30.043Z,82.24
2023-02-19T11:13:03.742Z,79.86
2023-02-19T11:15:32.565Z,79.24
2023-02-19T11:18:05.446Z,80.58
2023-02-19T11:20:33.239Z,78.96
2023-02-19T11:23:16.512Z,77.69
2023-02-19T11:25:47.413Z,74.13
2023-02-19T11:28:18.222Z,74.54
2023-02-19T11:30:46.729Z,71.20
2023-02-19T11:33:16.533Z,70.87
2023-02-19T11:35:44.908Z,71.51
2023-02-19T11:38:15.022Z,70.50
2023-02-19T11:40:54.068Z,71.69
2023-02-19T11:43:58.432Z,72.27
2023-02-19T11:46:46.273Z,72.87
2023-02-19T11:49:44.921Z,73.70
2023-02-19T11:52:17.967Z,74.26
2023-02-19T11:55:05.055Z,73.20
2023-02-19T11:57:43.308Z,72.60
2023-02-19T12:00:35.677Z,71.45
2023-02-19T12:03:22.287Z,70.95
2023-02-19T12:06:16.374Z,70.33
2023-02-19T12:09:13.121Z,68.59
2023-02-19T12:12:05.113Z,68.64
2023-02-19T12:14:57.219Z,67.28
2023-02-19T12:17:58.319Z,68.11
2023-02-19T12:20:44.284Z,68.69
2023-02-19T12:23:14.174Z,68.90
2023-02-19T12:25:53.484Z,67.73
2023-02-19T12:28:39.684Z,67.64
2023-02-19T12:31:13.183Z,67.87
2023-02-19T12:33:56.834Z,66.43
2023-02-19T12:36:27.104Z,68.28
2023-02-19T12:39:15.743Z,66.09
2023-02-19T12:42:02.145Z,66.29
2023-02-19T12:44:56.101Z,66.89
2023-02-19T12:47:31.914Z,66.71
2023-02-19T12:50:04.731Z,66.84
2023-02-19T12:52:36.792Z,68.05
2023-02-19T12:55:30.783Z,67.82
2023-02-19T12:58:02.741Z,67.08
2023-02-19T13:00:41.078Z,67.17
2023-02-19T13:03:21.123Z,67.92
2023-02-19T13:05:55.792Z,68.27
2023-02-19T13:08:36.552Z,67.92
2023-02-19T13:11:25.048Z,67.37
2023-02-19T13:13:58.885Z,68.17
2023-02-19T13:16:33.198Z,68.32
2023-02-19T13:19:03.330Z,68.79
2023-02-19T13:21:53.160Z,68.33
2023-02-19T13:24:25.134Z,67.56
2023-02-19T13:27:20.250Z,67.96
2023-02-19T13:30:20.821Z,67.31
2023-02-19T13:33:04.879Z,66.67
2023-02-19T13:35:57.253Z,65.89
2023-02-19T13:38:24.645Z,66.34
2023-02-19T13:40:59.090Z,67.25
2023-02-19T13:43:35.400Z,66.96
2023-02-19T13:46:12.513Z,65.53
2023-02-19T13:48:41.430Z,65.21
2023-02-19T13:51:26.360Z,64.82
2023-02-19T13:53:56.573Z,66.33
2023-02-19T13:56:29.688Z,65.43
2023-02-19T13:59:16.156Z,66.51
2023-02-19T14:01:49.540Z,67.15
2023-02-19T14:04:26.497Z,69.67
2023-02-19T14:07:05.804Z,78.23
2023-02-19T14:09:43.976Z,87.25
2023-02-19T14:12:11.345Z,94.13
2023-02-19T14:14:40.472Z,97.41
2023-02-19T14:17:10.321Z,99.99
2023-02-19T14:19:46.901Z,100.00
2023-02-19T14:22:45.574Z,100.00
2023-02-19T14:25:24.523Z,100.00
2023-02-19T14:27:53.540Z,100.00
2023-02-19T14:30:23.828Z,100.00
2023-02-19T14:33:02.762Z,100.00
2023-02-19T14:35:42.681Z,100.00
2023-02-19T14:38:27.544Z,100.00
2023-02-19T14:40:55.999Z,100.00
2023-02-19T14:43:26.622Z,100.00
2023-02-19T14:45:56.263Z,100.00
2023-02-19T14:48:34.421Z,100.00
2023-02-19T14:51:12.734Z,100.00
2023-02-19T14:53:44.770Z,100.00
2023-02-19T14:56:22.709Z,100.00
2023-02-19T14:59:25.124Z,100.00
2023-02-19T15:02:04.205Z,100.00
2023-02-19T15:04:37.114Z,100.00
2023-02-19T15:07:08.572Z,100.00
2023-02-19T15:09:47.437Z,100.00
2023-02-19T15:12:18.541Z,100.00
2023-02-19T15:14:46.703Z,100.00
2023-02-19T15:17:23.397Z,100.00
2023-02-19T15:19:50.884Z,100.00
2023-02-19T15:22:21.655Z,100.00
2023-02-19T15:24:49.151Z,100.00
2023-02-19T15:27:22.769Z,100.00
2023-02-19T15:29:53.734Z,100.00
2023-02-19T15:32:26.302Z,100.00
2023-02-19T15:34:59.471Z,100.00
2023-02-19T15:37:33.444Z,100.00
2023-02-19T15:40:05.501Z,100.00
2023-02-19T15:42:34.962Z,100.00
2023-02-19T15:45:19.937Z,100.00
2023-02-19T15:48:00.846Z,100.00
2023-02-19T15:50:33.532Z,100.00
2023-02-19T15:53:14.442Z,100.00
2023-02-19T15:55:59.864Z,100.00
2023-02-19T15:58:29.895Z,100.00
2023-02-19T16:01:01.142Z,100.00
2023-02-19T16:03:30.226Z,100.00
2023-02-19T16:06:03.722Z,100.00
2023-02-19T16:08:36.573Z,99.51
2023-02-19T16:11:07.290Z,99.66
2023-02-19T16:13:35.137Z,99.16
2023-02-19T16:16:23.815Z,99.41
2023-02-19T16:18:52.549Z,98.96
2023-02-19T16:21:26.352Z,99.20
2023-02-19T16:24:03.698Z,98.64
2023-02-19T16:26:39.249Z,99.41
2023-02-19T16:29:22.384Z,99.56
2023-02-19T16:31:51.955Z,100.00
2023-02-19T16:34:31.848Z,100.00
2023-02-19T16:36:58.985Z,100.00
2023-02-19T16:39:26.537Z,100.00
2023-02-19T16:41:59.758Z,100.00
2023-02-19T16:44:33.458Z,100.00
2023-02-19T16:47:05.280Z,100.00
2023-02-19T16:49:33.122Z,100.00
2023-02-19T16:52:04.192Z,100.00
2023-02-19T16:54:34.460Z,100.00
2023-02-19T16:57:01.870Z,99.71
2023-02-19T16:59:28.985Z,98.90
2023-02-19T17:01:56.246Z,99.12
2023-02-19T17:04:24.235Z,97.98
2023-02-19T17:06:51.428Z,98.54
2023-02-19T17:09:18.558Z,97.44
2023-02-19T17:11:46.152Z,97.27
2023-02-19T17:14:13.227Z,99.58
2023-02-19T17:16:40.730Z,100.00
2023-02-19T17:19:17.066Z,100.00
2023-02-19T17:21:46.619Z,100.00
2023-02-19T17:24:14.450Z,100.00
2023-02-19T17:26:41.608Z,98.98
2023-02-19T17:29:14.035Z,97.90
2023-02-19T17:31:41.979Z,96.52
2023-02-19T17:34:09.288Z,96.18
2023-02-19T17:36:38.013Z,96.84
2023-02-19T17:39:08.795Z,96.06
2023-02-19T17:41:35.954Z,96.56
2023-02-19T17:44:03.091Z,97.18
2023-02-19T17:46:30.511Z,96.51
2023-02-19T17:48:57.722Z,96.37
2023-02-19T17:51:24.808Z,97.51
2023-02-19T17:53:52.191Z,98.13
2023-02-19T17:56:22.832Z,97.36
2023-02-19T17:58:50.028Z,97.96
2023-02-19T18:01:17.714Z,97.33
2023-02-19T18:03:45.131Z,97.29
2023-02-19T18:06:12.387Z,97.71
2023-02-19T18:08:39.736Z,98.41
2023-02-19T18:11:07.787Z,99.38
2023-02-19T18:13:38.090Z,100.00
2023-02-19T18:16:06.015Z,100.00
2023-02-19T18:18:36.852Z,99.45
2023-02-19T18:21:07.568Z,99.98
2023-02-19T18:23:35.239Z,100.00
2023-02-19T18:26:03.029Z,100.00
2023-02-19T18:28:30.151Z,100.00
2023-02-19T18:30:57.582Z,100.00
2023-02-19T18:33:24.718Z,100.00
2023-02-19T18:35:51.914Z,100.00
2023-02-19T18:38:19.562Z,100.00
2023-02-19T18:40:47.017Z,100.00
2023-02-19T18:43:14.185Z,100.00
2023-02-19T18:45:43.339Z,100.00
2023-02-19T18:48:10.901Z,100.00
2023-02-19T18:50:38.062Z,100.00
2023-02-19T18:53:05.464Z,100.00
2023-02-19T18:55:32.526Z,100.00
2023-02-19T18:57:59.603Z,100.00
2023-02-19T19:00:28.595Z,100.00
2023-02-19T19:02:57.891Z,100.00
2023-02-19T19:05:25.890Z,100.00
2023-02-19T19:07:59.013Z,100.00
2023-02-19T19:10:26.862Z,100.00
2023-02-19T19:12:54.441Z,100.00
2023-02-19T19:15:22.407Z,100.00
2023-02-19T19:17:49.839Z,100.00
2023-02-19T19:20:19.706Z,100.00
2023-02-19T19:22:49.518Z,100.00
2023-02-19T19:25:17.090Z,100.00
2023-02-19T19:27:44.294Z,100.00
2023-02-19T19:30:12.267Z,100.00
2023-02-19T19:32:40.091Z,100.00
2023-02-19T19:35:07.882Z,100.00
2023-02-19T19:37:35.172Z,100.00
2023-02-19T19:40:06.250Z,100.00
2023-02-19T19:42:33.412Z,100.00
2023-02-19T19:45:00.700Z,100.00
2023-02-19T19:47:28.242Z,100.00
2023-02-19T19:49:55.354Z,100.00
2023-02-19T19:52:22.944Z,100.00
2023-02-19T19:54:54.006Z,100.00
2023-02-19T19:57:21.404Z,100.00
2023-02-19T19:59:51.134Z,100.00
2023-02-19T20:02:19.138Z,100.00
2023-02-19T20:04:46.625Z,100.00
2023-02-19T20:07:13.875Z,100.00
2023-02-19T20:09:41.148Z,100.00
2023-02-19T20:12:08.700Z,100.00
2023-02-19T20:14:35.846Z,100.00
2023-02-19T20:17:02.999Z,100.00
2023-02-19T20:19:30.397Z,100.00
2023-02-19T20:21:57.488Z,99.70
2023-02-19T20:24:28.501Z,99.58
2023-02-19T20:27:01.858Z,97.14
2023-02-19T20:29:33.557Z,96.10
2023-02-19T20:32:03.687Z,93.72
2023-02-19T20:34:31.504Z,92.19
2023-02-19T20:36:58.940Z,92.21
2023-02-19T20:39:29.466Z,92.20
2023-02-19T20:41:58.424Z,92.17
2023-02-19T20:44:27.243Z,92.99
2023-02-19T20:46:56.619Z,92.72
2023-02-19T20:49:26.526Z,93.66
2023-02-19T20:51:58.043Z,92.20
2023-02-19T20:54:27.887Z,93.36
2023-02-19T20:56:57.922Z,93.71
2023-02-19T20:59:30.536Z,93.61
2023-02-19T21:02:02.607Z,93.37
2023-02-19T21:04:30.015Z,93.79
2023-02-19T21:06:57.333Z,93.43
2023-02-19T21:09:24.519Z,93.31
2023-02-19T21:11:52.125Z,93.09
2023-02-19T21:14:19.261Z,92.04
2023-02-19T21:16:46.613Z,92.31
2023-02-19T21:19:14.088Z,92.49
2023-02-19T21:21:41.281Z,93.39
2023-02-19T21:24:09.588Z,93.15
2023-02-19T21:26:39.568Z,94.24
2023-02-19T21:29:10.645Z,94.72
2023-02-19T21:31:40.543Z,94.89
2023-02-19T21:34:09.803Z,95.37
2023-02-19T21:36:37.339Z,95.27
2023-02-19T21:39:06.828Z,97.18
2023-02-19T21:41:34.178Z,96.26
2023-02-19T21:44:01.311Z,97.08
2023-02-19T21:46:28.750Z,97.30
2023-02-19T21:48:57.028Z,97.18
2023-02-19T21:51:32.450Z,97.05
2023-02-19T21:54:00.560Z,97.00
2023-02-19T21:56:29.938Z,97.08
2023-02-19T21:58:57.341Z,97.44
2023-02-19T22:01:38.693Z,97.02
2023-02-19T22:04:07.768Z,97.38
2023-02-19T22:06:35.223Z,97.87
2023-02-19T22:09:03.750Z,97.06
2023-02-19T22:11:31.223Z,97.16
2023-02-19T22:13:58.913Z,97.14
2023-02-19T22:16:26.312Z,96.83
2023-02-19T22:18:58.756Z,96.75
2023-02-19T22:21:33.576Z,95.90
2023-02-19T22:24:03.032Z,95.87
2023-02-19T22:26:34.819Z,95.85
2023-02-19T22:29:07.078Z,95.03
2023-02-19T22:31:35.305Z,94.20
2023-02-19T22:34:03.615Z,93.66
2023-02-19T22:36:33.311Z,93.20
2023-02-19T22:39:01.329Z,93.46
2023-02-19T22:41:29.041Z,92.84
2023-02-19T22:43:57.487Z,93.00
2023-02-19T22:46:27.238Z,91.84
2023-02-19T22:48:54.894Z,90.69
2023-02-19T22:51:23.886Z,90.14
2023-02-19T22:53:54.079Z,92.07
2023-02-19T22:56:23.939Z,91.08
2023-02-19T22:58:52.009Z,90.76
2023-02-19T23:01:19.841Z,90.11
2023-02-19T23:03:55.568Z,88.66
2023-02-19T23:06:28.570Z,88.54
2023-02-19T23:08:58.343Z,87.54
2023-02-19T23:11:27.747Z,85.29
2023-02-19T23:13:55.290Z,84.03
2023-02-19T23:16:22.844Z,84.12
2023-02-19T23:18:50.009Z,83.15
2023-02-19T23:21:18.484Z,83.02
2023-02-19T23:23:46.601Z,82.61
2023-02-19T23:26:15.370Z,82.48
2023-02-19T23:28:43.900Z,82.21
2023-02-19T23:31:12.586Z,81.61
2023-02-19T23:33:40.336Z,82.07
2023-02-19T23:36:07.943Z,82.75
2023-02-19T23:38:35.740Z,83.99
2023-02-19T23:41:02.858Z,83.02
2023-02-19T23:43:30.092Z,82.09
2023-02-19T23:45:57.475Z,82.83
2023-02-19T23:48:24.626Z,82.57
2023-02-19T23:50:51.646Z,83.07
2023-02-19T23:53:18.995Z,81.99
2023-02-19T23:55:46.177Z,82.62
2023-02-19T23:58:13.203Z,83.16
